Weather reports worldwide

Advertisment
Glasgow/Intl, United Kingdom (3140): temperature & dewpoint: 17.03.2019 09:00:00 - 23.03.2019 09:00:00 (GMT)Glasgow/Intl, United Kingdom (3140): wind speed: 17.03.2019 09:00:00 - 23.03.2019 09:00:00 (GMT)Glasgow/Intl, United Kingdom (3140): wind direction: 17.03.2019 09:00:00 - 23.03.2019 09:00:00 (GMT)Glasgow/Intl, United Kingdom (3140): visibility: 17.03.2019 09:00:00 - 23.03.2019 09:00:00 (GMT)
Date & Time tt [°C] td [°C] ff [km/h] ff [kn] dd vv [km]
23.03.2019 09:00:00 7,0 2,0 22 12 WSW 10
23.03.2019 08:00:00 6,0 2,0 15 8 SW 10
23.03.2019 07:00:00 5,0 1,0 18 10 W 10
23.03.2019 06:00:00 5,0 1,0 29 16 WSW 10
23.03.2019 05:00:00 5,0 1,0 29 16 W 10
23.03.2019 04:00:00 5,0 1,0 24 13 WSW 10
23.03.2019 03:00:00 5,0 1,0 24 13 WSW 10
23.03.2019 02:00:00 5,0 1,0 28 15 WSW 10
23.03.2019 01:00:00 5,0 1,0 24 13 WSW 10
23.03.2019 00:00:00 5,0 2,0 21 11 WSW 10
22.03.2019 23:00:00 6,0 1,0 24 13 W 10
22.03.2019 22:00:00 6,0 2,0 22 12 WSW 10
22.03.2019 21:00:00 6,0 3,0 24 13 WSW 10
22.03.2019 20:00:00 6,0 3,0 26 14 W 10
22.03.2019 19:00:00 8,0 2,0 29 16 WSW 10
22.03.2019 18:00:00 8,0 2,0 26 14 W 10
22.03.2019 17:00:00 10,0 4,0 31 17 W 10
22.03.2019 16:00:00 10,0 5,0 31 17 W 10
22.03.2019 15:00:00 10,0 7,0 24 13 WSW 10
22.03.2019 14:00:00 9,0 7,0 26 14 WSW 10
22.03.2019 13:00:00 9,0 7,0 31 17 WSW 10
22.03.2019 12:00:00 10,0 8,0 41 22 SSW 7
22.03.2019 11:00:00 10,0 8,0 35 19 SSW 10
22.03.2019 10:00:00 11,0 8,0 35 19 SSW 10
22.03.2019 09:00:00 11,0 8,0 29 16 SSW 10
22.03.2019 08:00:00 11,0 8,0 35 19 SSW 10
22.03.2019 07:00:00 10,0 7,0 21 11 S 10
22.03.2019 06:00:00 10,0 8,0 34 18 SSW 10
22.03.2019 05:00:00 10,0 7,0 18 10 S 10
22.03.2019 04:00:00 10,0 7,0 37 20 S 10
22.03.2019 03:00:00 9,0 7,0 29 16 S 10
22.03.2019 02:00:00 9,0 7,0 24 13 SSE 10
22.03.2019 01:00:00 10,0 7,0 16 9 SSW 10
22.03.2019 00:00:00 10,0 7,0 9 5 SSE 10
21.03.2019 23:00:00 10,0 8,0 16 9 S 10
21.03.2019 22:00:00 11,0 8,0 16 9 S 10
21.03.2019 21:00:00 11,0 8,0 15 8 SSE 10
21.03.2019 20:00:00 12,0 9,0 21 11 S 10
21.03.2019 19:00:00 12,0 10,0 15 8 SE 10
21.03.2019 18:00:00 12,0 10,0 15 8 SSW 10
21.03.2019 17:00:00 12,0 10,0 18 10 SSW 10
21.03.2019 16:00:00 12,0 10,0 18 10 SW 10
21.03.2019 15:00:00 12,0 10,0 16 9 WSW 10
21.03.2019 14:00:00 13,0 11,0 24 13 SW 10
21.03.2019 13:00:00 12,0 11,0 24 13 SW 10
21.03.2019 12:00:00 11,0 11,0 21 11 SW 4,9
21.03.2019 11:00:00 11,0 10,0 22 12 SSW 10
21.03.2019 10:00:00 11,0 10,0 31 17 SW 4,4
21.03.2019 09:00:00 10,0 10,0 29 16 SW 2,6
21.03.2019 08:00:00 10,0 10,0 34 18 SW 6
21.03.2019 07:00:00 10,0 9,0 37 20 SW 8
21.03.2019 06:00:00 10,0 9,0 41 22 SW 10
21.03.2019 05:00:00 10,0 9,0 37 20 SW 10
21.03.2019 04:00:00 11,0 9,0 15 8 SSW 10
21.03.2019 03:00:00 11,0 10,0 28 15 WSW 7
21.03.2019 02:00:00 10,0 9,0 28 15 SW 10
21.03.2019 01:00:00 11,0 10,0 24 13 SW 10
21.03.2019 00:00:00 11,0 10,0 18 10 SW 8
20.03.2019 23:00:00 11,0 10,0 24 13 SSW 10
20.03.2019 22:00:00 10,0 10,0 28 15 SW 10
20.03.2019 21:00:00 11,0 11,0 28 15 SW 10
20.03.2019 20:00:00 11,0 10,0 22 12 SW 5
20.03.2019 19:00:00 12,0 10,0 26 14 SSW 7
20.03.2019 18:00:00 12,0 10,0 29 16 SSW 10
20.03.2019 17:00:00 12,0 10,0 28 15 SW 10
20.03.2019 16:00:00 13,0 11,0 24 13 SW 10
20.03.2019 15:00:00 12,0 10,0 29 16 SW 10
20.03.2019 14:00:00 12,0 10,0 34 18 SW 10
20.03.2019 13:00:00 12,0 10,0 28 15 SSW 10
20.03.2019 12:00:00 11,0 9,0 28 15 SSW 10
20.03.2019 11:00:00 11,0 10,0 24 13 SW 10
20.03.2019 10:00:00 11,0 10,0 24 13 SW 10
20.03.2019 09:00:00 10,0 9,0 16 9 SW 4,4
20.03.2019 08:00:00 9,0 9,0 15 8 SW 3,5
20.03.2019 07:00:00 9,0 9,0 18 10 SSW 4,0
20.03.2019 06:00:00 9,0 9,0 16 9 SSW 5
20.03.2019 05:00:00 9,0 9,0 9 5 S 5
20.03.2019 04:00:00 9,0 8,0 11 6 S 6
20.03.2019 03:00:00 9,0 8,0 18 10 SW 7
20.03.2019 02:00:00 9,0 9,0 9 5 S 10
20.03.2019 01:00:00 10,0 8,0 9 5 SW 10
20.03.2019 00:00:00 9,0 8,0 9 5 SW 10
19.03.2019 23:00:00 9,0 8,0 13 7 SW 10
19.03.2019 22:00:00 10,0 8,0 9 5 SW 10
19.03.2019 21:00:00 10,0 8,0 11 6 SSW 10
19.03.2019 20:00:00 10,0 9,0 15 8 SW 10
19.03.2019 19:00:00 9,0 8,0 16 9 SW 10
19.03.2019 18:00:00 10,0 8,0 26 14 WSW 10
19.03.2019 17:00:00 10,0 9,0 31 17 WSW 10
19.03.2019 16:00:00 10,0 9,0 28 15 SW 6
19.03.2019 15:00:00 10,0 9,0 29 16 SW 3,9
19.03.2019 14:00:00 10,0 9,0 34 18 SW 10
19.03.2019 13:00:00 9,0 8,0 22 12 SSW 10
19.03.2019 12:00:00 9,0 8,0 22 12 SW 10
19.03.2019 11:00:00 8,0 7,0 29 16 SW 10
19.03.2019 10:00:00 9,0 7,0 28 15 SW 10
19.03.2019 09:00:00 9,0 7,0 18 10 SW 10
19.03.2019 08:00:00 8,0 7,0 9 5 SW 10
19.03.2019 07:00:00 8,0 7,0 16 9 SSW 10
19.03.2019 06:00:00 7,0 7,0 15 8 SW 10
19.03.2019 05:00:00 7,0 6,0 4 2 - 4,5
19.03.2019 04:00:00 6,0 6,0 5 3 NE 3,7
19.03.2019 03:00:00 6,0 6,0 4 2 NE 3,9
19.03.2019 02:00:00 5,0 5,0 4 2 NE 2,9
19.03.2019 01:00:00 6,0 5,0 5 3 SW 4,2
19.03.2019 00:00:00 6,0 5,0 5 3 WSW 3,8
18.03.2019 23:00:00 5,0 5,0 9 5 SW 5
18.03.2019 22:00:00 5,0 5,0 9 5 SW 3,8
18.03.2019 21:00:00 7,0 6,0 5 3 WSW 8
18.03.2019 20:00:00 7,0 6,0 5 3 SW 10
18.03.2019 19:00:00 8,0 6,0 2 1 NW 10
18.03.2019 18:00:00 8,0 7,0 4 2 - 10
18.03.2019 17:00:00 9,0 6,0 11 6 SSW 10
18.03.2019 16:00:00 9,0 6,0 13 7 SSW 10
18.03.2019 15:00:00 8,0 6,0 11 6 SW 10
18.03.2019 14:00:00 8,0 5,0 16 9 SSW 10
18.03.2019 13:00:00 8,0 5,0 18 10 SSW 10
18.03.2019 12:00:00 8,0 6,0 11 6 SSW 10
18.03.2019 11:00:00 7,0 5,0 5 3 - 10
18.03.2019 10:00:00 6,0 4,0 8 4 S 10
18.03.2019 09:00:00 6,0 4,0 9 5 SSW 10
18.03.2019 08:00:00 4,0 3,0 2 1 - 10
18.03.2019 07:00:00 3,0 2,0 5 3 - 10
18.03.2019 06:00:00 2,0 1,0 8 4 NE 10
18.03.2019 05:00:00 2,0 1,0 2 1 ESE 10
18.03.2019 04:00:00 3,0 1,0 5 3 - 10
18.03.2019 03:00:00 3,0 1,0 2 1 - 10
18.03.2019 02:00:00 2,0 0,0 15 8 SW 10
18.03.2019 01:00:00 3,0 1,0 15 8 W 10
18.03.2019 00:00:00 3,0 1,0 15 8 WSW 10
17.03.2019 23:00:00 4,0 1,0 13 7 W 10
17.03.2019 22:00:00 4,0 0,0 11 6 WSW 10
17.03.2019 21:00:00 4,0 0,0 9 5 S 10
17.03.2019 20:00:00 5,0 0,0 18 10 WNW 10
17.03.2019 19:00:00 6,0 0,0 18 10 WNW 10
17.03.2019 18:00:00 7,0 1,0 15 8 WNW 10
17.03.2019 17:00:00 9,0 2,0 16 9 N 10
17.03.2019 16:00:00 10,0 3,0 28 15 WNW 10
17.03.2019 15:00:00 10,0 3,0 26 14 WNW 10
17.03.2019 14:00:00 9,0 4,0 21 11 W 10
17.03.2019 13:00:00 8,0 3,0 21 11 W 10
17.03.2019 12:00:00 8,0 4,0 18 10 W 10
17.03.2019 11:00:00 7,0 4,0 24 13 WSW 10
17.03.2019 10:00:00 5,0 2,0 21 11 WSW 10
17.03.2019 09:00:00 4,0 2,0 24 13 WSW 10

tt = temperature
td = dewpoint
ff = wind speed
dd = wind direction
vv = visibility

Next stations